Time;durP1;ratioP1;P1;durP2;ratioP2;P2;SDS_P1;SDS_P2;PMS_P1;PMS_P2;Temp;Humidity;BMP_temperature;BMP_pressure;BME280_temperature;BME280_humidity;BME280_pressure;Samples;Min_cycle;Max_cycle;Signal;HPM_P1;HPM_P2
2023/07/04 00:00:58;;;;;;;7.25;3.42;;;20.20;61.70;;;;;;5063826;28;20044;-74
2023/07/04 00:03:24;;;;;;;8.93;4.15;;;20.20;62.90;;;;;;5064840;28;20048;-75
2023/07/04 00:05:53;;;;;;;6.85;3.60;;;20.10;62.10;;;;;;5062150;28;20037;-73
2023/07/04 00:08:21;;;;;;;6.55;3.38;;;20.10;61.50;;;;;;5061213;28;20523;-75
2023/07/04 00:10:47;;;;;;;6.32;3.70;;;20.10;62.30;;;;;;5060360;28;20037;-75
2023/07/04 00:13:14;;;;;;;7.82;4.15;;;20.10;65.10;;;;;;5065126;28;20062;-76
2023/07/04 00:15:48;;;;;;;8.70;4.10;;;20.00;63.70;;;;;;5062112;28;20033;-75
2023/07/04 00:18:20;;;;;;;12.65;4.10;;;20.00;63.70;;;;;;5063458;28;20032;-75
2023/07/04 00:20:47;;;;;;;9.68;4.10;;;20.00;64.90;;;;;;5062424;28;20043;-75
2023/07/04 00:23:13;;;;;;;9.00;4.13;;;19.80;63.80;;;;;;5063056;28;20118;-73
2023/07/04 00:25:38;;;;;;;10.63;4.55;;;19.70;63.70;;;;;;5064923;28;20060;-74
2023/07/04 00:28:05;;;;;;;12.07;4.30;;;19.80;63.50;;;;;;5064584;28;20056;-75
2023/07/04 00:30:32;;;;;;;9.93;4.28;;;19.80;63.20;;;;;;5065372;28;20033;-75
2023/07/04 00:32:58;;;;;;;10.38;4.13;;;19.80;63.50;;;;;;5062383;28;20558;-76
2023/07/04 00:35:25;;;;;;;6.72;3.78;;;19.80;63.20;;;;;;5062240;28;20041;-75
2023/07/04 00:37:50;;;;;;;6.93;3.97;;;19.80;63.80;;;;;;5063652;28;20063;-75
2023/07/04 00:40:17;;;;;;;8.68;4.22;;;19.80;64.80;;;;;;5065395;28;20072;-75
2023/07/04 00:42:45;;;;;;;9.10;4.07;;;19.80;64.70;;;;;;5058991;28;20037;-75
2023/07/04 00:45:19;;;;;;;9.90;4.70;;;19.80;64.00;;;;;;5061525;28;20033;-74
2023/07/04 00:47:55;;;;;;;10.23;4.45;;;19.80;63.20;;;;;;5061588;28;20734;-75
2023/07/04 00:50:39;;;;;;;7.47;4.38;;;19.80;64.10;;;;;;5063815;28;20036;-75
2023/07/04 00:53:09;;;;;;;9.80;4.77;;;19.70;63.80;;;;;;5065402;28;20037;-75
2023/07/04 00:55:39;;;;;;;7.13;4.25;;;19.70;63.70;;;;;;5062416;28;20212;-75
2023/07/04 00:58:05;;;;;;;10.50;4.38;;;19.70;63.80;;;;;;5061085;28;20515;-76
2023/07/04 01:00:33;;;;;;;7.18;3.95;;;19.70;64.90;;;;;;5061710;28;20068;-74
2023/07/04 01:03:18;;;;;;;9.95;5.07;;;19.70;65.20;;;;;;5061136;28;20574;-74
2023/07/04 01:05:50;;;;;;;;;;;19.70;64.30;;;;;;5065961;28;20078;-75
2023/07/04 01:08:24;;;;;;;7.93;4.07;;;19.80;63.30;;;;;;5079742;28;19916;-76
2023/07/04 01:10:51;;;;;;;10.35;4.25;;;19.80;63.00;;;;;;5062357;28;20029;-75
2023/07/04 01:13:38;;;;;;;10.27;4.43;;;19.80;64.00;;;;;;5062674;28;20032;-75
2023/07/04 01:16:16;;;;;;;8.38;4.45;;;19.80;63.70;;;;;;5061639;28;20041;-76
2023/07/04 01:18:46;;;;;;;9.48;4.00;;;19.70;64.20;;;;;;5064810;28;20029;-76
2023/07/04 01:21:14;;;;;;;7.97;4.25;;;19.70;64.40;;;;;;5061260;28;20037;-76
2023/07/04 01:24:06;;;;;;;12.40;4.60;;;19.70;63.80;;;;;;5058786;28;20072;-75
2023/07/04 01:26:43;;;;;;;9.65;4.03;;;19.70;64.10;;;;;;5062741;28;20059;-75
2023/07/04 01:29:13;;;;;;;11.63;4.35;;;19.70;66.00;;;;;;5061144;28;20044;-75
2023/07/04 01:31:40;;;;;;;8.75;4.40;;;19.70;66.30;;;;;;5061413;28;20469;-75
2023/07/04 01:34:08;;;;;;;6.93;4.18;;;19.70;67.30;;;;;;5060645;28;20372;-75
2023/07/04 01:36:40;;;;;;;8.40;4.05;;;19.80;67.10;;;;;;5062347;28;20029;-76
2023/07/04 01:39:14;;;;;;;6.93;4.13;;;19.80;65.50;;;;;;5062972;28;20028;-76
2023/07/04 01:41:45;;;;;;;6.40;3.97;;;19.80;67.10;;;;;;5058932;28;20056;-76
2023/07/04 01:44:13;;;;;;;9.43;3.97;;;19.80;68.80;;;;;;5064636;28;20576;-76
2023/07/04 01:46:39;;;;;;;10.55;4.53;;;19.80;67.00;;;;;;5064887;28;20043;-75
2023/07/04 01:49:05;;;;;;;7.07;4.43;;;19.80;68.00;;;;;;5061244;28;20074;-76
2023/07/04 01:51:35;;;;;;;6.15;4.38;;;19.70;68.00;;;;;;5063193;28;20029;-75
2023/07/04 01:54:02;;;;;;;7.95;4.38;;;19.80;67.30;;;;;;5058186;28;20040;-75
2023/07/04 01:56:30;;;;;;;10.30;4.45;;;19.80;65.40;;;;;;5059830;28;20032;-74
2023/07/04 01:58:56;;;;;;;9.43;4.78;;;19.70;64.80;;;;;;5064026;28;20032;-74
2023/07/04 02:01:22;;;;;;;9.05;5.03;;;19.70;64.90;;;;;;5058208;28;20511;-73
2023/07/04 02:03:48;;;;;;;14.38;5.03;;;19.70;64.70;;;;;;5061322;28;20040;-73
2023/07/04 02:06:15;;;;;;;8.73;4.78;;;19.70;65.20;;;;;;5060353;28;20028;-74
2023/07/04 02:08:42;;;;;;;9.73;4.65;;;19.70;64.90;;;;;;5059450;28;20040;-74
2023/07/04 02:11:08;;;;;;;8.15;4.43;;;19.70;65.50;;;;;;5062586;28;20033;-74
2023/07/04 02:13:35;;;;;;;10.10;4.60;;;19.80;65.20;;;;;;5059595;28;20123;-74
2023/07/04 02:16:01;;;;;;;6.10;4.03;;;19.90;65.50;;;;;;5060502;28;20178;-74
2023/07/04 02:18:27;;;;;;;7.68;4.82;;;19.90;66.10;;;;;;5060830;28;20127;-74
2023/07/04 02:20:53;;;;;;;10.18;4.53;;;19.90;65.00;;;;;;5056237;28;20063;-75
2023/07/04 02:23:19;;;;;;;8.70;4.90;;;20.00;65.40;;;;;;5047913;28;20097;-74
2023/07/04 02:25:45;;;;;;;10.45;5.05;;;20.00;64.40;;;;;;5059388;28;20119;-75
2023/07/04 02:28:11;;;;;;;8.70;4.47;;;20.00;65.00;;;;;;5046056;28;20033;-76
2023/07/04 02:30:38;;;;;;;8.85;4.68;;;20.10;64.80;;;;;;5059566;28;20056;-75
2023/07/04 02:33:05;;;;;;;9.75;4.65;;;20.30;64.10;;;;;;5046149;28;20063;-75
2023/07/04 02:35:32;;;;;;;7.53;4.65;;;20.50;65.30;;;;;;5047522;28;20627;-75
2023/07/04 02:37:58;;;;;;;8.35;4.60;;;20.60;63.90;;;;;;5061902;28;20127;-74
2023/07/04 02:40:24;;;;;;;13.68;4.90;;;20.80;64.30;;;;;;5055931;28;20111;-74
2023/07/04 02:42:50;;;;;;;8.68;5.00;;;20.90;64.10;;;;;;5063899;28;20171;-74
2023/07/04 02:45:16;;;;;;;7.07;4.30;;;21.10;63.70;;;;;;5064566;28;20033;-75
2023/07/04 02:47:42;;;;;;;10.23;4.50;;;21.30;64.30;;;;;;5063291;28;20090;-75
2023/07/04 02:50:16;;;;;;;7.03;4.65;;;21.50;64.60;;;;;;5057449;28;20028;-76
2023/07/04 02:52:42;;;;;;;10.13;4.35;;;21.60;63.80;;;;;;5061339;28;20473;-76
2023/07/04 02:55:08;;;;;;;8.50;4.15;;;21.70;63.10;;;;;;5069238;28;20040;-75
2023/07/04 02:57:36;;;;;;;7.93;4.70;;;21.70;63.70;;;;;;5069103;28;20491;-75
2023/07/04 03:00:02;;;;;;;8.45;4.50;;;21.90;64.30;;;;;;5067337;28;20041;-74
2023/07/04 03:02:32;;;;;;;9.90;4.55;;;22.00;63.10;;;;;;5062995;28;20033;-81
2023/07/04 03:04:59;;;;;;;7.68;4.18;;;22.20;62.00;;;;;;5061614;28;20420;-78
2023/07/04 03:07:28;;;;;;;9.65;4.47;;;22.40;62.60;;;;;;5066959;28;20490;-79
2023/07/04 03:09:55;;;;;;;12.55;4.65;;;22.60;62.40;;;;;;5051721;28;20033;-86
2023/07/04 03:12:24;;;;;;;8.80;4.50;;;22.50;61.70;;;;;;5062386;28;20477;-82
2023/07/04 03:14:50;;;;;;;9.70;4.75;;;22.40;60.40;;;;;;5066816;28;20093;-82
2023/07/04 03:17:17;;;;;;;9.82;4.55;;;22.30;60.70;;;;;;5043371;28;20127;-80
2023/07/04 03:19:45;;;;;;;7.72;4.35;;;22.10;60.50;;;;;;5060563;28;20046;-79
2023/07/04 03:22:12;;;;;;;11.65;4.72;;;22.00;60.80;;;;;;5062937;28;20044;-81
2023/07/04 03:24:38;;;;;;;10.82;4.80;;;22.00;60.00;;;;;;5062464;28;20037;-80
2023/07/04 03:27:04;;;;;;;9.20;4.30;;;22.10;60.90;;;;;;5065312;28;20036;-82
2023/07/04 03:29:32;;;;;;;10.45;4.55;;;22.30;59.40;;;;;;5046543;28;20067;-76
2023/07/04 03:31:59;;;;;;;11.68;4.22;;;22.40;58.60;;;;;;5062032;28;20198;-79
2023/07/04 03:34:25;;;;;;;9.57;3.92;;;22.50;58.90;;;;;;5061396;28;20028;-80
2023/07/04 03:36:51;;;;;;;7.10;4.40;;;22.70;58.50;;;;;;5067269;28;20512;-76
2023/07/04 03:39:17;;;;;;;7.57;3.90;;;22.80;58.40;;;;;;5065497;28;20074;-78
2023/07/04 03:41:43;;;;;;;7.22;4.18;;;23.00;58.20;;;;;;5066865;28;20533;-81
2023/07/04 03:44:09;;;;;;;8.90;4.13;;;23.20;56.90;;;;;;5063176;28;20048;-82
2023/07/04 03:46:36;;;;;;;8.48;4.18;;;23.30;57.70;;;;;;5061510;28;20032;-80
2023/07/04 03:49:02;;;;;;;11.70;4.35;;;23.50;56.20;;;;;;5058187;28;20676;-77
2023/07/04 03:51:28;;;;;;;11.23;4.43;;;23.70;56.60;;;;;;5065491;28;20042;-79
2023/07/04 03:53:54;;;;;;;6.93;3.95;;;23.90;55.70;;;;;;5058845;28;20139;-81
2023/07/04 03:56:20;;;;;;;7.85;4.15;;;24.00;55.40;;;;;;5062147;28;20076;-80
2023/07/04 03:58:46;;;;;;;8.10;4.60;;;24.10;54.80;;;;;;5062518;28;20131;-78
2023/07/04 04:01:12;;;;;;;8.13;4.60;;;24.30;55.70;;;;;;5057907;28;20496;-77
2023/07/04 04:03:38;;;;;;;9.50;4.03;;;24.40;54.20;;;;;;5058771;28;20553;-80
2023/07/04 04:06:09;;;;;;;13.43;4.25;;;24.50;54.40;;;;;;5060503;28;20032;-78
2023/07/04 04:08:35;;;;;;;7.30;3.78;;;24.70;55.40;;;;;;5064158;28;20534;-78
2023/07/04 04:11:02;;;;;;;8.48;4.20;;;24.90;55.40;;;;;;5062334;28;20036;-79
2023/07/04 04:13:29;;;;;;;7.82;3.55;;;25.00;54.60;;;;;;5061288;28;20036;-78
2023/07/04 04:15:55;;;;;;;7.97;3.72;;;25.20;54.60;;;;;;5061327;28;20051;-78
2023/07/04 04:18:21;;;;;;;6.53;3.80;;;25.30;53.10;;;;;;5062871;28;20037;-78
2023/07/04 04:20:47;;;;;;;6.35;3.95;;;25.50;54.50;;;;;;5059144;28;20051;-78
2023/07/04 04:23:15;;;;;;;7.65;3.60;;;25.60;52.10;;;;;;5057905;28;20097;-78
2023/07/04 04:25:40;;;;;;;7.93;3.58;;;25.80;51.70;;;;;;5061221;28;20033;-79
2023/07/04 04:28:08;;;;;;;5.78;3.50;;;25.90;53.30;;;;;;5060933;28;20032;-80
2023/07/04 04:30:34;;;;;;;8.07;4.03;;;26.10;52.90;;;;;;5061349;28;20044;-78
2023/07/04 04:33:02;;;;;;;8.15;3.53;;;26.40;51.90;;;;;;5061825;28;20036;-79
2023/07/04 04:35:29;;;;;;;8.38;3.90;;;26.50;52.40;;;;;;5063227;28;20033;-80
2023/07/04 04:37:55;;;;;;;5.55;3.50;;;26.60;50.20;;;;;;5061591;28;20078;-79
2023/07/04 04:40:21;;;;;;;4.78;3.22;;;26.70;50.50;;;;;;5063668;28;20029;-79
2023/07/04 04:42:55;;;;;;;8.27;3.15;;;26.90;51.30;;;;;;5059537;28;20408;-79
2023/07/04 04:45:23;;;;;;;5.78;3.10;;;27.00;51.50;;;;;;5062624;28;20033;-79
2023/07/04 04:47:53;;;;;;;7.35;3.05;;;27.20;51.40;;;;;;5062556;28;20475;-80
2023/07/04 04:50:24;;;;;;;5.90;3.05;;;27.30;51.80;;;;;;5059143;28;20109;-79
2023/07/04 04:52:51;;;;;;;7.97;3.20;;;27.40;52.20;;;;;;5061417;28;20041;-79
2023/07/04 04:55:17;;;;;;;5.40;3.20;;;27.60;51.70;;;;;;5064177;28;20375;-80
2023/07/04 04:57:43;;;;;;;6.25;3.47;;;27.60;49.20;;;;;;5060185;28;20037;-79
2023/07/04 05:00:12;;;;;;;10.85;3.92;;;27.70;49.40;;;;;;5061936;28;20036;-80
2023/07/04 05:02:37;;;;;;;6.07;3.20;;;27.80;48.60;;;;;;5062702;28;20128;-80
2023/07/04 05:05:04;;;;;;;10.57;3.80;;;27.90;49.70;;;;;;5062780;28;20127;-81
2023/07/04 05:07:31;;;;;;;7.15;3.30;;;28.00;49.80;;;;;;5064414;28;20029;-79
2023/07/04 05:10:00;;;;;;;8.80;3.25;;;28.20;51.00;;;;;;5061104;28;20483;-79
2023/07/04 05:12:26;;;;;;;5.90;3.00;;;28.20;48.80;;;;;;5061733;28;20041;-78
2023/07/04 05:14:52;;;;;;;8.98;3.42;;;28.40;49.80;;;;;;5061123;28;20121;-78
2023/07/04 05:17:18;;;;;;;8.13;3.47;;;28.50;50.10;;;;;;5059927;28;20123;-78
2023/07/04 05:19:50;;;;;;;6.97;2.83;;;28.50;47.30;;;;;;5062006;28;20044;-80
2023/07/04 05:22:17;;;;;;;10.55;3.47;;;28.70;49.80;;;;;;5060914;28;20056;-79
2023/07/04 05:24:43;;;;;;;8.05;3.08;;;28.80;49.80;;;;;;5045437;28;20035;-79
2023/07/04 05:27:09;;;;;;;4.35;2.60;;;28.90;48.10;;;;;;5063172;28;20032;-80
2023/07/04 05:29:35;;;;;;;10.82;3.38;;;29.00;48.70;;;;;;5059701;28;20051;-79
2023/07/04 05:32:01;;;;;;;6.80;2.95;;;29.10;47.60;;;;;;5060912;28;20037;-79
2023/07/04 05:34:27;;;;;;;5.47;3.00;;;29.30;48.70;;;;;;5062276;28;20082;-80
2023/07/04 05:36:54;;;;;;;5.35;2.80;;;29.40;47.60;;;;;;5060395;28;20032;-79
2023/07/04 05:39:20;;;;;;;7.97;2.60;;;29.50;48.40;;;;;;5063027;28;20498;-79
2023/07/04 05:41:46;;;;;;;6.30;2.60;;;29.60;47.80;;;;;;5061009;28;20047;-79
2023/07/04 05:44:13;;;;;;;3.33;2.70;;;29.70;46.80;;;;;;5061999;28;20415;-77
2023/07/04 05:46:38;;;;;;;5.43;2.53;;;29.90;45.70;;;;;;5060551;28;20495;-78
2023/07/04 05:49:05;;;;;;;4.18;2.90;;;29.90;47.20;;;;;;5059356;28;20041;-79
2023/07/04 05:51:32;;;;;;;4.18;2.47;;;30.10;46.30;;;;;;5060936;28;20045;-78
2023/07/04 05:53:57;;;;;;;5.10;3.13;;;30.20;46.40;;;;;;5059472;28;20033;-79
2023/07/04 05:56:25;;;;;;;6.43;2.67;;;30.20;45.10;;;;;;5059952;28;20155;-77
2023/07/04 05:58:56;;;;;;;7.25;3.00;;;30.30;45.30;;;;;;5057830;28;20075;-76
2023/07/04 06:01:28;;;;;;;4.45;2.72;;;30.50;44.60;;;;;;5061903;28;20025;-78
2023/07/04 06:03:55;;;;;;;8.02;3.13;;;30.70;44.70;;;;;;5059861;28;20121;-76
2023/07/04 06:06:25;;;;;;;4.20;2.70;;;30.60;45.10;;;;;;5060012;28;20044;-79
2023/07/04 06:08:52;;;;;;;6.38;2.72;;;30.70;44.50;;;;;;5061357;28;20045;-77
2023/07/04 06:11:20;;;;;;;4.78;2.72;;;30.70;45.00;;;;;;5060927;28;20033;-78
2023/07/04 06:13:46;;;;;;;5.40;3.20;;;30.80;43.50;;;;;;5061036;28;20435;-79
2023/07/04 06:16:12;;;;;;;5.28;2.95;;;30.90;42.30;;;;;;5060615;28;20455;-77
2023/07/04 06:18:39;;;;;;;4.03;2.85;;;31.00;44.00;;;;;;5059090;28;20036;-77
2023/07/04 06:21:10;;;;;;;5.22;2.90;;;31.00;44.40;;;;;;5061008;28;20086;-79
2023/07/04 06:23:37;;;;;;;6.03;3.22;;;31.10;43.80;;;;;;5059216;28;20036;-79
2023/07/04 06:26:05;;;;;;;4.93;2.60;;;31.10;43.50;;;;;;5058030;28;20036;-79
2023/07/04 06:28:32;;;;;;;5.90;2.75;;;31.10;43.20;;;;;;5058671;28;20056;-79
2023/07/04 06:30:58;;;;;;;4.97;2.90;;;31.10;42.30;;;;;;5056571;28;20517;-79
2023/07/04 06:33:24;;;;;;;4.82;3.03;;;31.00;44.00;;;;;;5059289;28;20033;-78
2023/07/04 06:35:50;;;;;;;6.22;2.70;;;31.00;44.80;;;;;;5059111;28;20037;-75
2023/07/04 06:38:16;;;;;;;4.95;3.03;;;31.00;43.90;;;;;;5061022;28;20033;-79
2023/07/04 06:40:42;;;;;;;7.72;2.95;;;31.00;43.90;;;;;;5058478;28;20032;-79
2023/07/04 06:43:08;;;;;;;6.88;3.00;;;31.10;44.30;;;;;;5060467;28;20428;-79
2023/07/04 06:45:35;;;;;;;5.55;3.30;;;31.20;43.60;;;;;;5058235;28;20071;-78
2023/07/04 06:48:01;;;;;;;5.18;3.03;;;31.10;43.50;;;;;;5055898;28;20037;-77
2023/07/04 06:50:28;;;;;;;5.78;2.95;;;31.10;42.90;;;;;;5057979;28;20032;-77
2023/07/04 06:52:55;;;;;;;7.20;3.30;;;31.20;43.70;;;;;;5058290;28;20040;-78
2023/07/04 06:55:21;;;;;;;9.48;3.00;;;31.20;43.40;;;;;;5058645;28;20044;-78
2023/07/04 06:57:47;;;;;;;15.82;3.78;;;31.20;43.60;;;;;;5057190;28;20094;-79
2023/07/04 07:00:13;;;;;;;7.55;3.40;;;31.20;42.30;;;;;;5058957;28;20047;-78
2023/07/04 07:02:40;;;;;;;5.72;2.90;;;31.20;43.00;;;;;;5058819;28;20522;-79
2023/07/04 07:05:06;;;;;;;7.22;3.10;;;31.10;42.70;;;;;;5059262;28;20050;-79
2023/07/04 07:07:32;;;;;;;6.60;3.28;;;31.10;43.10;;;;;;5058679;28;20523;-81
2023/07/04 07:09:58;;;;;;;5.43;3.30;;;31.00;43.80;;;;;;5062212;28;20040;-82
2023/07/04 07:12:24;;;;;;;8.55;3.42;;;31.10;45.20;;;;;;5063144;28;20040;-83
2023/07/04 07:14:50;;;;;;;6.85;3.28;;;31.10;44.80;;;;;;5062990;28;20185;-80
2023/07/04 07:17:16;;;;;;;5.43;3.08;;;31.10;47.10;;;;;;5062521;28;20039;-75
2023/07/04 07:19:42;;;;;;;7.63;3.53;;;31.20;47.50;;;;;;5058578;28;20035;-83
2023/07/04 07:22:19;;;;;;;7.07;3.47;;;31.00;46.80;;;;;;5101382;27;20132;-82
2023/07/04 07:24:45;;;;;;;4.18;3.13;;;30.20;44.50;;;;;;5065333;27;20036;-81
2023/07/04 07:27:11;;;;;;;8.20;3.35;;;29.70;50.20;;;;;;5059420;28;20040;-80
2023/07/04 07:29:36;;;;;;;3.83;2.63;;;29.70;51.30;;;;;;5062050;28;20033;-84
2023/07/04 07:32:05;;;;;;;6.35;3.13;;;29.50;51.80;;;;;;5060027;28;20049;-82
2023/07/04 07:34:31;;;;;;;7.80;3.10;;;29.30;52.80;;;;;;5065821;28;21590;-81
2023/07/04 07:36:56;;;;;;;7.97;3.53;;;29.40;51.90;;;;;;5060815;28;20039;-85
2023/07/04 07:39:22;;;;;;;8.50;3.30;;;29.30;51.20;;;;;;5062371;28;20032;-83
2023/07/04 07:41:48;;;;;;;6.70;3.28;;;29.10;50.50;;;;;;5061013;28;20045;-80
2023/07/04 07:44:16;;;;;;;4.15;2.95;;;29.00;51.90;;;;;;5061751;28;20039;-78
2023/07/04 07:46:44;;;;;;;9.07;3.60;;;29.00;49.70;;;;;;5058215;28;20032;-79
2023/07/04 07:49:10;;;;;;;4.47;3.08;;;28.80;48.10;;;;;;5059412;28;20040;-84
2023/07/04 07:51:39;;;;;;;6.57;3.45;;;28.70;51.50;;;;;;5061641;28;20041;-79
2023/07/04 07:54:06;;;;;;;5.93;3.25;;;28.70;48.90;;;;;;5057498;28;20039;-81
2023/07/04 07:56:38;;;;;;;8.60;3.63;;;28.60;48.70;;;;;;5059699;28;20033;-83
2023/07/04 07:59:05;;;;;;;7.63;3.50;;;28.40;43.10;;;;;;5062102;28;20450;-86
2023/07/04 08:01:33;;;;;;;5.68;2.97;;;28.30;51.10;;;;;;5061097;28;20079;-85
2023/07/04 08:04:00;;;;;;;5.47;3.50;;;28.30;53.30;;;;;;5060941;28;20045;-86
2023/07/04 08:06:27;;;;;;;7.22;3.38;;;28.30;51.60;;;;;;5062818;28;20118;-86
2023/07/04 08:08:55;;;;;;;6.78;3.38;;;28.30;46.10;;;;;;5089942;28;20029;-83
2023/07/04 08:11:21;;;;;;;6.00;3.30;;;28.20;42.80;;;;;;5058214;28;20047;-83
2023/07/04 08:13:48;;;;;;;6.10;3.63;;;28.10;47.60;;;;;;5059050;28;20033;-82
2023/07/04 08:16:20;;;;;;;4.25;3.35;;;28.10;48.60;;;;;;5060588;28;20037;-81
2023/07/04 08:18:47;;;;;;;9.40;3.55;;;28.00;43.70;;;;;;5061287;28;20040;-76
2023/07/04 08:21:13;;;;;;;6.78;3.55;;;27.90;43.60;;;;;;5056745;28;20412;-77
2023/07/04 08:23:39;;;;;;;7.53;3.95;;;27.80;44.90;;;;;;5056036;28;20029;-78
2023/07/04 08:26:05;;;;;;;7.78;3.58;;;27.70;44.10;;;;;;5056692;28;20389;-76
2023/07/04 08:28:30;;;;;;;6.28;3.50;;;27.70;44.30;;;;;;5057593;28;20032;-76
2023/07/04 08:31:06;;;;;;;6.25;3.88;;;27.60;43.60;;;;;;5058213;28;20033;-77
2023/07/04 08:33:32;;;;;;;7.57;3.97;;;27.60;44.40;;;;;;5044359;28;20124;-77
2023/07/04 08:36:08;;;;;;;8.55;4.00;;;27.50;44.20;;;;;;5043684;28;20036;-76
2023/07/04 08:38:34;;;;;;;6.28;3.60;;;27.50;45.50;;;;;;5045278;28;20041;-76
2023/07/04 08:41:01;;;;;;;5.65;3.50;;;27.50;46.00;;;;;;5043248;28;20120;-77
2023/07/04 08:44:10;;;;;;;6.90;3.63;;;27.50;48.50;;;;;;5044500;28;20025;-78
2023/07/04 08:46:43;;;;;;;8.32;3.20;;;27.50;45.20;;;;;;5036365;28;20329;-74
2023/07/04 08:49:40;;;;;;;4.45;3.33;;;27.50;46.50;;;;;;5045230;28;20036;-77
2023/07/04 08:52:26;;;;;;;6.90;3.95;;;27.50;47.20;;;;;;5040177;28;20037;-77
2023/07/04 08:54:54;;;;;;;8.05;3.70;;;27.50;53.60;;;;;;5042792;28;20037;-82
2023/07/04 08:57:51;;;;;;;4.70;3.60;;;27.50;51.90;;;;;;5041549;28;20048;-76
2023/07/04 09:00:37;;;;;;;6.95;4.20;;;27.50;50.30;;;;;;5040140;28;20411;-76
2023/07/04 09:03:13;;;;;;;4.55;3.15;;;27.50;49.40;;;;;;5042171;28;20426;-76
2023/07/04 09:06:03;;;;;;;6.00;3.85;;;27.50;49.40;;;;;;5043550;28;20065;-80
2023/07/04 09:08:50;;;;;;;6.32;3.92;;;27.50;45.30;;;;;;5042668;28;20038;-77
2023/07/04 09:11:17;;;;;;;5.85;3.70;;;27.30;44.40;;;;;;5043842;28;20055;-86
2023/07/04 09:13:47;;;;;;;5.35;3.65;;;27.40;45.60;;;;;;5045369;28;20059;-81
2023/07/04 09:16:22;;;;;;;7.80;4.00;;;27.40;45.70;;;;;;5045510;28;20017;-87
2023/07/04 09:19:07;;;;;;;5.82;4.30;;;27.30;45.60;;;;;;5057437;28;20098;-87
2023/07/04 09:21:34;;;;;;;7.20;3.40;;;27.30;45.70;;;;;;5032572;28;20056;-84
2023/07/04 09:24:04;;;;;;;5.15;3.70;;;27.30;44.40;;;;;;5045835;28;20056;-82
2023/07/04 09:26:53;;;;;;;8.40;3.72;;;27.20;44.40;;;;;;5042231;28;20033;-83
2023/07/04 09:29:24;;;;;;;9.25;4.07;;;27.20;43.50;;;;;;5044398;28;20033;-84
2023/07/04 09:32:00;;;;;;;5.90;3.97;;;27.30;45.30;;;;;;5047762;28;20960;-80
2023/07/04 09:34:31;;;;;;;6.60;4.10;;;27.30;44.00;;;;;;5042226;28;20032;-79
2023/07/04 09:37:00;;;;;;;6.95;3.80;;;27.10;44.30;;;;;;5042134;28;20034;-81
2023/07/04 09:39:50;;;;;;;5.15;3.75;;;27.10;45.60;;;;;;5041334;28;20594;-79
2023/07/04 09:42:18;;;;;;;5.82;4.03;;;27.10;45.60;;;;;;5041342;28;20033;-79
2023/07/04 09:44:45;;;;;;;5.65;3.58;;;27.10;46.20;;;;;;5040750;28;20041;-81
2023/07/04 09:47:25;;;;;;;7.65;4.07;;;27.20;44.80;;;;;;5042135;28;20568;-76
2023/07/04 09:50:09;;;;;;;8.10;3.72;;;27.00;44.40;;;;;;5044716;28;20063;-83
2023/07/04 09:52:35;;;;;;;8.10;3.60;;;27.00;45.20;;;;;;5047244;28;20025;-83
2023/07/04 09:55:09;;;;;;;8.32;3.88;;;27.10;45.40;;;;;;5032726;28;20060;-86
2023/07/04 09:57:35;;;;;;;6.90;3.60;;;27.10;46.60;;;;;;5046665;28;20083;-83
2023/07/04 10:00:23;;;;;;;7.43;3.65;;;27.10;47.50;;;;;;5046965;28;20029;-89
2023/07/04 10:02:54;;;;;;;5.35;3.53;;;27.20;47.20;;;;;;5077355;28;20128;-83
2023/07/04 10:05:32;;;;;;;6.95;4.07;;;27.10;44.50;;;;;;5044249;28;20091;-87
2023/07/04 10:08:14;;;;;;;8.63;4.13;;;27.10;43.70;;;;;;5077680;28;20064;-87
2023/07/04 10:10:51;;;;;;;6.70;4.10;;;27.00;45.20;;;;;;5045908;28;20271;-88
2023/07/04 10:13:19;;;;;;;7.68;3.53;;;27.00;45.30;;;;;;5047706;28;20041;-84
2023/07/04 10:15:49;;;;;;;6.05;3.60;;;27.00;44.70;;;;;;5047395;28;20132;-81
2023/07/04 10:18:33;;;;;;;7.35;4.05;;;27.00;44.40;;;;;;5043636;28;20040;-82
2023/07/04 10:21:00;;;;;;;7.03;4.18;;;26.90;44.00;;;;;;5040830;28;20050;-79
2023/07/04 10:23:28;;;;;;;8.90;4.25;;;26.90;43.70;;;;;;5045459;28;20025;-78
2023/07/04 10:25:59;;;;;;;6.57;3.80;;;26.80;43.40;;;;;;5041774;28;20035;-79
2023/07/04 10:28:27;;;;;;;7.35;4.10;;;26.80;45.00;;;;;;5040827;28;20064;-79
2023/07/04 10:31:05;;;;;;;4.47;3.95;;;26.80;45.10;;;;;;5039458;28;20073;-79
2023/07/04 10:33:47;;;;;;;16.70;11.77;;;26.80;44.20;;;;;;5041736;28;20041;-77
2023/07/04 10:36:16;;;;;;;9.60;6.30;;;26.80;45.90;;;;;;5039165;28;20040;-77
2023/07/04 10:38:48;;;;;;;8.35;4.78;;;26.80;45.50;;;;;;5037981;28;20037;-76
2023/07/04 10:41:27;;;;;;;11.23;4.80;;;26.80;45.40;;;;;;5039975;28;20148;-76
2023/07/04 10:44:00;;;;;;;6.43;4.47;;;26.80;45.30;;;;;;5044139;28;20059;-77
2023/07/04 10:46:29;;;;;;;5.78;3.75;;;26.80;44.70;;;;;;5040779;28;20129;-77
2023/07/04 10:49:04;;;;;;;9.02;4.43;;;26.80;43.40;;;;;;5042869;28;20497;-76
2023/07/04 10:51:41;;;;;;;5.37;3.80;;;26.80;44.20;;;;;;5041557;28;20033;-77
2023/07/04 10:54:12;;;;;;;5.80;3.97;;;26.80;44.80;;;;;;5039555;28;20160;-77
2023/07/04 10:56:46;;;;;;;6.53;4.00;;;26.80;43.90;;;;;;5040275;28;20025;-77
2023/07/04 10:59:32;;;;;;;6.20;3.83;;;26.70;45.00;;;;;;5040241;28;20060;-76
2023/07/04 11:02:11;;;;;;;5.10;3.90;;;26.70;43.40;;;;;;5041285;28;20040;-76
2023/07/04 11:04:39;;;;;;;6.15;3.92;;;26.70;44.70;;;;;;5042267;28;20075;-75
2023/07/04 11:07:21;;;;;;;6.47;4.15;;;26.80;44.50;;;;;;5040503;28;20044;-76
2023/07/04 11:09:57;;;;;;;6.40;4.05;;;26.70;44.60;;;;;;5038737;28;20037;-76
2023/07/04 11:12:28;;;;;;;9.25;4.18;;;26.70;44.90;;;;;;5042006;28;20025;-77
2023/07/04 11:15:28;;;;;;;5.18;3.53;;;26.70;45.60;;;;;;5072602;28;20112;-76
2023/07/04 11:17:54;;;;;;;6.47;3.63;;;26.80;44.40;;;;;;5042821;28;20029;-77
2023/07/04 11:20:26;;;;;;;7.40;3.97;;;26.70;43.80;;;;;;5038839;28;20148;-77
2023/07/04 11:22:57;;;;;;;5.63;3.63;;;26.70;43.50;;;;;;5024458;28;20028;-77
2023/07/04 11:25:26;;;;;;;6.55;4.00;;;26.60;42.90;;;;;;5041694;28;20472;-78
2023/07/04 11:28:25;;;;;;;6.60;4.00;;;26.70;44.40;;;;;;5041895;28;20389;-77
2023/07/04 11:30:52;;;;;;;4.80;3.65;;;26.70;42.50;;;;;;5040484;28;20038;-77
2023/07/04 11:33:53;;;;;;;4.93;3.35;;;26.70;43.10;;;;;;5040051;28;20491;-77
2023/07/04 11:36:40;;;;;;;5.25;3.88;;;26.60;43.90;;;;;;5036891;28;20127;-78
2023/07/04 11:39:28;;;;;;;6.78;4.22;;;26.70;44.40;;;;;;5041170;28;20543;-77
2023/07/04 11:41:56;;;;;;;5.03;3.78;;;26.70;43.60;;;;;;5053972;28;20127;-77
2023/07/04 11:44:30;;;;;;;6.80;4.22;;;26.70;44.10;;;;;;5040398;28;20047;-76
2023/07/04 11:47:06;;;;;;;5.80;3.53;;;26.70;43.10;;;;;;5039003;28;20546;-76
2023/07/04 11:49:34;;;;;;;7.50;3.47;;;26.70;43.90;;;;;;5041364;28;20029;-76
2023/07/04 11:52:09;;;;;;;6.60;4.00;;;26.70;42.70;;;;;;5038844;28;20444;-77
2023/07/04 11:54:36;;;;;;;5.40;3.38;;;26.70;43.30;;;;;;5042175;28;20033;-79
2023/07/04 11:57:08;;;;;;;5.72;3.70;;;26.70;43.60;;;;;;5040539;28;20029;-76
2023/07/04 11:59:44;;;;;;;5.90;3.75;;;26.60;43.50;;;;;;5038037;28;20029;-77
2023/07/04 12:02:30;;;;;;;7.38;3.88;;;26.60;43.80;;;;;;5042808;28;20037;-76
2023/07/04 12:04:57;;;;;;;6.00;3.55;;;26.60;44.00;;;;;;5040501;28;20507;-76
2023/07/04 12:07:43;;;;;;;5.47;3.05;;;26.70;43.90;;;;;;5041844;28;20404;-77
2023/07/04 12:10:28;;;;;;;6.53;3.60;;;26.70;43.70;;;;;;5044076;28;20041;-77
2023/07/04 12:13:07;;;;;;;6.15;3.55;;;26.70;43.30;;;;;;5043845;28;20040;-78
2023/07/04 12:15:35;;;;;;;5.60;3.42;;;26.70;42.30;;;;;;5043273;28;20028;-78
2023/07/04 12:18:19;;;;;;;5.60;3.58;;;26.70;42.70;;;;;;5043764;28;20048;-78
2023/07/04 12:20:45;;;;;;;6.03;4.18;;;26.70;43.90;;;;;;5043211;28;20041;-79
2023/07/04 12:23:11;;;;;;;5.57;3.70;;;26.70;43.70;;;;;;5045031;28;20033;-78
2023/07/04 12:25:46;;;;;;;7.57;3.92;;;26.70;44.30;;;;;;5044885;28;20404;-76
2023/07/04 12:28:14;;;;;;;8.05;3.70;;;26.70;44.30;;;;;;5042461;28;20091;-77
2023/07/04 12:30:46;;;;;;;3.95;3.05;;;26.80;43.60;;;;;;5045021;28;20048;-76
2023/07/04 12:33:29;;;;;;;5.25;3.63;;;26.80;44.00;;;;;;5044038;28;20044;-77
2023/07/04 12:36:10;;;;;;;5.47;3.25;;;26.80;43.50;;;;;;5044170;28;20127;-78
2023/07/04 12:38:50;;;;;;;8.40;3.55;;;26.80;43.60;;;;;;5046197;28;20208;-77
2023/07/04 12:41:19;;;;;;;5.05;3.70;;;26.70;43.20;;;;;;5043509;28;20160;-77
2023/07/04 12:43:56;;;;;;;5.47;3.55;;;26.70;42.80;;;;;;5043738;28;20538;-76
2023/07/04 12:46:23;;;;;;;5.60;3.47;;;26.80;42.90;;;;;;5044634;28;20301;-76
2023/07/04 12:48:50;;;;;;;5.63;3.78;;;26.80;43.70;;;;;;5039281;28;20059;-77
2023/07/04 12:51:19;;;;;;;6.00;3.70;;;26.80;42.00;;;;;;5044995;28;20039;-76
2023/07/04 12:53:46;;;;;;;7.30;3.67;;;26.70;42.30;;;;;;5041994;28;20029;-77
2023/07/04 12:56:14;;;;;;;4.53;3.40;;;26.70;42.40;;;;;;5055184;28;20041;-78
2023/07/04 12:58:41;;;;;;;6.25;3.65;;;26.70;41.90;;;;;;5047008;28;20584;-79
2023/07/04 13:01:09;;;;;;;8.05;4.05;;;26.70;42.70;;;;;;5045823;28;20056;-77